Time;durP1;ratioP1;P1;durP2;ratioP2;P2;SDS_P1;SDS_P2;PMS_P1;PMS_P2;Temp;Humidity;BMP_temperature;BMP_pressure;BME280_temperature;BME280_humidity;BME280_pressure;Samples;Min_cycle;Max_cycle;Signal;HPM_P1;HPM_P2
2024/01/24 00:00:34;;;;;;;6.38;1.60;;;12.60;99.90;;;;;;4992623;28;20498;-76
2024/01/24 00:02:59;;;;;;;5.88;1.60;;;12.70;99.90;;;;;;4994360;28;20030;-76
2024/01/24 00:05:25;;;;;;;4.65;1.23;;;12.70;99.90;;;;;;4993488;28;20038;-76
2024/01/24 00:07:51;;;;;;;3.42;1.55;;;12.70;99.90;;;;;;4992483;28;20391;-76
2024/01/24 00:10:17;;;;;;;5.10;1.58;;;12.80;99.90;;;;;;4993210;28;20133;-75
2024/01/24 00:12:42;;;;;;;4.78;1.35;;;12.80;99.90;;;;;;4994087;28;20026;-76
2024/01/24 00:15:08;;;;;;;5.53;1.13;;;12.90;99.90;;;;;;4977066;28;20041;-76
2024/01/24 00:17:34;;;;;;;4.00;1.10;;;12.90;99.90;;;;;;4997609;28;20038;-76
2024/01/24 00:19:59;;;;;;;4.65;1.10;;;12.90;99.90;;;;;;5016319;28;20053;-73
2024/01/24 00:22:25;;;;;;;5.00;0.90;;;12.90;99.90;;;;;;4999621;28;20065;-73
2024/01/24 00:24:51;;;;;;;7.43;1.02;;;12.90;99.90;;;;;;4999185;28;20113;-73
2024/01/24 00:27:16;;;;;;;3.00;0.75;;;12.90;99.90;;;;;;4999190;28;20036;-74
2024/01/24 00:29:43;;;;;;;2.58;0.70;;;12.90;99.90;;;;;;4999271;28;20034;-74
2024/01/24 00:32:08;;;;;;;3.03;0.77;;;12.90;99.90;;;;;;5016766;28;20118;-74
2024/01/24 00:34:34;;;;;;;3.63;0.63;;;12.90;99.90;;;;;;5016656;28;20061;-74
2024/01/24 00:36:59;;;;;;;2.05;0.43;;;12.90;99.90;;;;;;4983004;28;20557;-74
2024/01/24 00:39:25;;;;;;;1.73;0.40;;;13.00;99.90;;;;;;4983258;28;20382;-74
2024/01/24 00:41:52;;;;;;;2.45;0.28;;;13.00;99.90;;;;;;4983149;28;20116;-75
2024/01/24 00:44:17;;;;;;;1.15;0.30;;;13.10;99.90;;;;;;5016451;28;20026;-74
2024/01/24 00:46:43;;;;;;;3.35;0.30;;;13.10;99.90;;;;;;4998660;28;20034;-75
2024/01/24 00:49:10;;;;;;;2.70;0.45;;;13.10;99.90;;;;;;4999433;28;20167;-74
2024/01/24 00:51:36;;;;;;;2.97;0.80;;;13.10;99.90;;;;;;4998607;28;20042;-74
2024/01/24 00:54:01;;;;;;;1.27;0.30;;;13.10;99.90;;;;;;5016594;28;20026;-74
2024/01/24 00:56:27;;;;;;;3.10;0.35;;;13.10;99.90;;;;;;4982921;28;20057;-74
2024/01/24 00:58:52;;;;;;;2.10;0.30;;;13.10;99.90;;;;;;5015885;28;20034;-74
2024/01/24 01:01:19;;;;;;;1.60;0.30;;;13.20;99.90;;;;;;5015872;28;20037;-74
2024/01/24 01:03:45;;;;;;;1.60;0.22;;;13.10;99.90;;;;;;4998797;28;20033;-73
2024/01/24 01:06:10;;;;;;;1.60;0.30;;;13.10;99.90;;;;;;4999140;28;20041;-74
2024/01/24 01:08:36;;;;;;;1.77;0.40;;;13.10;99.90;;;;;;5015765;28;20033;-74
2024/01/24 01:11:02;;;;;;;2.67;0.40;;;13.10;99.90;;;;;;4998121;28;20403;-75
2024/01/24 01:13:27;;;;;;;3.97;0.30;;;13.10;99.90;;;;;;5015937;28;20536;-74
2024/01/24 01:15:53;;;;;;;2.10;0.32;;;13.10;99.90;;;;;;5015798;28;20112;-74
2024/01/24 01:18:18;;;;;;;5.20;0.32;;;13.10;99.90;;;;;;4978665;28;20141;-73
2024/01/24 01:20:44;;;;;;;2.78;0.20;;;13.00;99.90;;;;;;4995208;28;20054;-74
2024/01/24 01:23:09;;;;;;;2.35;0.30;;;13.00;99.90;;;;;;4996431;28;20415;-74
2024/01/24 01:25:35;;;;;;;2.95;0.75;;;12.90;99.90;;;;;;4994887;28;20061;-74
2024/01/24 01:28:01;;;;;;;2.15;0.28;;;12.90;99.90;;;;;;4994544;28;20034;-72
2024/01/24 01:30:26;;;;;;;2.95;0.60;;;12.90;99.90;;;;;;4996053;28;20046;-73
2024/01/24 01:32:52;;;;;;;1.52;0.20;;;12.80;99.90;;;;;;4995766;28;20034;-74
2024/01/24 01:35:18;;;;;;;1.77;0.22;;;12.80;99.90;;;;;;4995808;28;20383;-74
2024/01/24 01:37:43;;;;;;;1.75;0.43;;;12.70;99.90;;;;;;4978149;28;20033;-74
2024/01/24 01:40:09;;;;;;;1.75;0.30;;;12.70;99.90;;;;;;4994458;28;20463;-74
2024/01/24 01:42:35;;;;;;;1.40;0.40;;;12.60;99.90;;;;;;4978248;28;20030;-74
2024/01/24 01:45:03;;;;;;;0.98;0.40;;;12.60;99.90;;;;;;4977873;28;20360;-74
2024/01/24 01:47:29;;;;;;;2.63;0.50;;;12.50;99.90;;;;;;4994139;28;20026;-74
2024/01/24 01:49:55;;;;;;;1.88;0.40;;;12.50;99.90;;;;;;4994867;28;20109;-75
2024/01/24 01:52:22;;;;;;;1.92;0.40;;;12.50;99.90;;;;;;4994001;28;20089;-75
2024/01/24 01:54:49;;;;;;;1.52;0.50;;;12.50;99.90;;;;;;4993809;28;20553;-74
2024/01/24 01:57:15;;;;;;;4.65;0.50;;;12.40;99.90;;;;;;4995183;28;20053;-74
2024/01/24 01:59:41;;;;;;;1.45;0.50;;;12.40;99.90;;;;;;4962030;28;20412;-75
2024/01/24 02:02:07;;;;;;;1.10;0.70;;;12.40;99.90;;;;;;4993351;28;20026;-75
2024/01/24 02:04:33;;;;;;;1.05;0.70;;;12.30;99.90;;;;;;4994359;28;20031;-74
2024/01/24 02:07:00;;;;;;;2.03;0.77;;;12.40;99.90;;;;;;4977532;28;20360;-75
2024/01/24 02:09:26;;;;;;;1.45;1.08;;;12.30;99.90;;;;;;4993573;28;20129;-75
2024/01/24 02:11:52;;;;;;;1.85;0.88;;;12.30;99.90;;;;;;4977688;28;20061;-75
2024/01/24 02:14:18;;;;;;;1.15;0.80;;;12.30;99.90;;;;;;4995021;28;20054;-75
2024/01/24 02:16:43;;;;;;;0.75;0.40;;;12.30;99.90;;;;;;4977317;28;20065;-75
2024/01/24 02:19:10;;;;;;;0.70;0.50;;;12.30;99.90;;;;;;5005276;28;20058;-75
2024/01/24 02:21:36;;;;;;;1.60;0.60;;;12.30;99.90;;;;;;4997256;28;20037;-74
2024/01/24 02:24:03;;;;;;;1.10;0.82;;;12.30;99.90;;;;;;4997136;28;20034;-75
2024/01/24 02:26:29;;;;;;;1.40;0.70;;;12.30;99.90;;;;;;4996927;28;20497;-74
2024/01/24 02:28:55;;;;;;;0.80;0.70;;;12.30;99.90;;;;;;4997162;28;20069;-74
2024/01/24 02:31:20;;;;;;;0.65;0.52;;;12.30;99.90;;;;;;4996516;28;20517;-75
2024/01/24 02:33:46;;;;;;;3.30;0.57;;;12.30;99.90;;;;;;4996566;28;20493;-74
2024/01/24 02:36:14;;;;;;;0.60;0.60;;;12.30;99.90;;;;;;5015901;28;20041;-74
2024/01/24 02:38:41;;;;;;;1.95;0.50;;;12.30;99.90;;;;;;5014977;28;20077;-74
2024/01/24 02:41:07;;;;;;;0.90;0.50;;;12.30;99.90;;;;;;4999527;28;20030;-74
2024/01/24 02:43:33;;;;;;;1.13;0.40;;;12.30;99.90;;;;;;4997230;28;20466;-74
2024/01/24 02:46:00;;;;;;;0.50;0.30;;;12.30;99.90;;;;;;4996968;28;20129;-74
2024/01/24 02:48:26;;;;;;;1.17;0.30;;;12.30;99.90;;;;;;4980333;28;20038;-74
2024/01/24 02:50:52;;;;;;;0.57;0.30;;;12.40;99.90;;;;;;4996155;28;20382;-74
2024/01/24 02:53:18;;;;;;;4.45;0.60;;;12.40;99.90;;;;;;5014145;28;20030;-75
2024/01/24 02:55:44;;;;;;;0.50;0.30;;;12.50;99.90;;;;;;5014865;28;20526;-75
2024/01/24 02:58:10;;;;;;;2.92;0.30;;;12.50;99.90;;;;;;5014553;28;20109;-75
2024/01/24 03:00:36;;;;;;;1.20;0.40;;;12.50;99.90;;;;;;5015130;28;20072;-75
2024/01/24 03:03:01;;;;;;;1.10;0.30;;;12.60;99.90;;;;;;5014208;28;20026;-74
2024/01/24 03:05:27;;;;;;;1.52;0.30;;;12.50;99.90;;;;;;4996444;28;20056;-74
2024/01/24 03:07:53;;;;;;;1.98;0.45;;;12.60;99.90;;;;;;4996508;28;20371;-75
2024/01/24 03:10:21;;;;;;;1.98;0.40;;;12.60;99.90;;;;;;5013407;28;20038;-75
2024/01/24 03:12:46;;;;;;;3.13;0.40;;;12.60;99.90;;;;;;4980057;28;20405;-74
2024/01/24 03:15:12;;;;;;;1.75;0.32;;;12.60;99.90;;;;;;4996308;28;20049;-75
2024/01/24 03:17:38;;;;;;;0.70;0.30;;;12.60;99.90;;;;;;5013567;28;20532;-75
2024/01/24 03:20:05;;;;;;;1.23;0.32;;;12.60;99.90;;;;;;4980055;28;20057;-75
2024/01/24 03:22:31;;;;;;;2.70;0.60;;;12.60;99.90;;;;;;4996259;28;20085;-74
2024/01/24 03:24:56;;;;;;;2.53;0.68;;;12.60;99.90;;;;;;5013514;28;20053;-75
2024/01/24 03:27:22;;;;;;;1.95;0.60;;;12.60;99.90;;;;;;4995807;28;20526;-75
2024/01/24 03:29:48;;;;;;;4.43;0.85;;;12.70;99.90;;;;;;5013554;28;20045;-74
2024/01/24 03:32:14;;;;;;;4.22;0.70;;;12.70;99.90;;;;;;4963648;28;20038;-73
2024/01/24 03:34:40;;;;;;;2.83;0.52;;;12.70;99.90;;;;;;5012980;28;20056;-75
2024/01/24 03:37:06;;;;;;;6.38;0.60;;;12.70;99.90;;;;;;4979105;28;20034;-75
2024/01/24 03:39:32;;;;;;;4.88;0.50;;;12.70;99.90;;;;;;4995489;28;20040;-76
2024/01/24 03:41:57;;;;;;;5.45;0.52;;;12.70;99.90;;;;;;4995526;28;20092;-76
2024/01/24 03:44:23;;;;;;;5.53;0.75;;;12.70;99.90;;;;;;4995551;28;20084;-74
2024/01/24 03:46:49;;;;;;;6.85;0.70;;;12.70;99.90;;;;;;5013084;28;20030;-73
2024/01/24 03:49:15;;;;;;;5.60;0.70;;;12.70;99.90;;;;;;5014016;28;20032;-73
2024/01/24 03:51:41;;;;;;;10.00;0.82;;;12.70;99.90;;;;;;5016583;28;20034;-73
2024/01/24 03:54:06;;;;;;;11.35;0.77;;;12.70;99.90;;;;;;4999315;28;20026;-73
2024/01/24 03:56:32;;;;;;;11.38;0.95;;;12.70;99.90;;;;;;5017165;28;20038;-74
2024/01/24 03:58:57;;;;;;;12.70;1.58;;;12.70;99.90;;;;;;4999079;28;20095;-74
2024/01/24 04:01:23;;;;;;;10.20;1.15;;;12.70;99.90;;;;;;5016878;28;20030;-74
2024/01/24 04:03:49;;;;;;;6.63;0.93;;;12.60;99.90;;;;;;5016694;28;20085;-73
2024/01/24 04:06:14;;;;;;;9.55;1.13;;;12.60;99.90;;;;;;4967090;28;20037;-73
2024/01/24 04:08:43;;;;;;;13.13;1.30;;;12.60;99.90;;;;;;5016757;28;20361;-74
2024/01/24 04:11:09;;;;;;;17.10;1.10;;;12.60;99.90;;;;;;5016594;28;20034;-74
2024/01/24 04:13:34;;;;;;;11.82;1.00;;;12.60;99.90;;;;;;4983203;28;20347;-74
2024/01/24 04:16:00;;;;;;;12.20;1.55;;;12.60;99.90;;;;;;5016824;28;20463;-74
2024/01/24 04:18:26;;;;;;;10.88;1.38;;;12.50;99.90;;;;;;5016541;28;20030;-74
2024/01/24 04:20:51;;;;;;;13.38;2.05;;;12.50;99.90;;;;;;4999004;28;20100;-74
2024/01/24 04:23:17;;;;;;;18.20;1.95;;;12.50;99.90;;;;;;4998976;28;20037;-73
2024/01/24 04:25:43;;;;;;;17.45;2.25;;;12.40;99.90;;;;;;4982402;28;20030;-73
2024/01/24 04:28:09;;;;;;;17.17;2.58;;;12.40;99.90;;;;;;4982854;28;20033;-74
2024/01/24 04:30:34;;;;;;;17.60;2.28;;;12.40;99.90;;;;;;5016280;28;20454;-73
2024/01/24 04:33:00;;;;;;;18.17;3.05;;;12.40;99.90;;;;;;4982684;28;20030;-74
2024/01/24 04:35:26;;;;;;;18.88;2.58;;;12.30;99.90;;;;;;4998432;28;20065;-75
2024/01/24 04:37:52;;;;;;;17.77;2.42;;;12.30;99.90;;;;;;4982174;28;20108;-74
2024/01/24 04:40:18;;;;;;;20.95;3.20;;;12.30;99.90;;;;;;4997980;28;20478;-74
2024/01/24 04:42:43;;;;;;;19.77;2.97;;;12.30;99.90;;;;;;5016024;28;20026;-74
2024/01/24 04:45:10;;;;;;;19.77;3.42;;;12.20;99.90;;;;;;4998716;28;20075;-74
2024/01/24 04:47:38;;;;;;;22.10;3.83;;;12.20;99.90;;;;;;5015920;28;20038;-74
2024/01/24 04:50:05;;;;;;;23.77;3.55;;;12.20;99.90;;;;;;5015634;28;20034;-74
2024/01/24 04:52:30;;;;;;;23.58;3.75;;;12.20;99.90;;;;;;4998171;28;20030;-74
2024/01/24 04:54:56;;;;;;;30.20;3.90;;;12.20;99.90;;;;;;4998154;28;20044;-74
2024/01/24 04:57:22;;;;;;;27.25;4.43;;;12.20;99.90;;;;;;4981848;28;20378;-74
2024/01/24 04:59:47;;;;;;;24.40;4.05;;;12.10;99.90;;;;;;4982067;28;20164;-74
2024/01/24 05:02:13;;;;;;;27.42;4.22;;;12.10;99.90;;;;;;4997360;28;20022;-75
2024/01/24 05:04:39;;;;;;;26.58;3.72;;;12.10;99.90;;;;;;5015949;28;20038;-74
2024/01/24 05:07:04;;;;;;;26.35;4.47;;;12.10;99.90;;;;;;4981886;28;20478;-74
2024/01/24 05:09:30;;;;;;;31.38;5.10;;;12.10;99.90;;;;;;5000225;28;20054;-74
2024/01/24 05:11:56;;;;;;;29.02;4.32;;;12.10;99.90;;;;;;4999900;28;20104;-74
2024/01/24 05:14:21;;;;;;;30.30;4.90;;;12.10;99.90;;;;;;4999018;28;20030;-74
2024/01/24 05:16:49;;;;;;;23.77;4.28;;;12.10;99.90;;;;;;5015920;28;20179;-74
2024/01/24 05:19:15;;;;;;;25.63;4.20;;;12.00;99.90;;;;;;5015448;28;20066;-74
2024/01/24 05:21:44;;;;;;;34.20;5.07;;;12.10;99.90;;;;;;4998267;28;20380;-74
2024/01/24 05:24:10;;;;;;;26.95;4.22;;;12.00;99.90;;;;;;4998212;28;20467;-74
2024/01/24 05:26:37;;;;;;;33.20;4.63;;;12.00;99.90;;;;;;5015575;28;20037;-74
2024/01/24 05:29:05;;;;;;;29.48;5.82;;;12.00;99.90;;;;;;4997454;28;20527;-74
2024/01/24 05:31:33;;;;;;;33.72;4.18;;;12.00;99.90;;;;;;4997033;28;20076;-74
2024/01/24 05:34:00;;;;;;;34.17;4.70;;;12.00;99.90;;;;;;4982192;28;20121;-74
2024/01/24 05:36:26;;;;;;;38.97;5.03;;;12.00;99.90;;;;;;4997945;28;20034;-74
2024/01/24 05:38:52;;;;;;;30.20;5.03;;;12.00;99.90;;;;;;5014528;28;20390;-74
2024/01/24 05:41:17;;;;;;;33.25;4.85;;;11.90;99.90;;;;;;4980990;28;20117;-74
2024/01/24 05:43:43;;;;;;;40.28;5.65;;;11.90;99.90;;;;;;5015069;28;20030;-74
2024/01/24 05:46:09;;;;;;;30.35;5.30;;;11.90;99.90;;;;;;4981444;28;20037;-73
2024/01/24 05:48:34;;;;;;;34.55;5.22;;;11.90;99.90;;;;;;5015040;28;20037;-74
2024/01/24 05:51:01;;;;;;;30.60;5.38;;;11.90;99.90;;;;;;4980753;28;20060;-75
2024/01/24 05:53:27;;;;;;;31.35;5.35;;;11.90;99.90;;;;;;5014600;28;20063;-75
2024/01/24 05:55:53;;;;;;;36.10;6.18;;;11.80;99.90;;;;;;4980963;28;20383;-76
2024/01/24 05:58:19;;;;;;;40.47;5.25;;;11.80;99.90;;;;;;5014551;28;20022;-74
2024/01/24 06:00:45;;;;;;;40.38;6.88;;;11.90;99.90;;;;;;4997006;28;20084;-74
2024/01/24 06:03:12;;;;;;;29.73;4.82;;;11.90;99.90;;;;;;5014458;28;20061;-75
2024/01/24 06:05:38;;;;;;;35.72;5.43;;;11.80;99.90;;;;;;5014325;28;20040;-74
2024/01/24 06:08:05;;;;;;;36.78;5.82;;;11.80;99.90;;;;;;4980655;28;20496;-75
2024/01/24 06:10:31;;;;;;;34.17;5.80;;;11.80;99.90;;;;;;5014288;28;20121;-74
2024/01/24 06:12:57;;;;;;;30.40;5.35;;;11.90;99.90;;;;;;4963653;28;20041;-74
2024/01/24 06:15:22;;;;;;;36.78;6.22;;;11.90;99.90;;;;;;4996692;28;20034;-74
2024/01/24 06:17:48;;;;;;;39.47;5.63;;;11.80;99.90;;;;;;5014400;28;20394;-74
2024/01/24 06:20:14;;;;;;;37.38;6.53;;;11.80;99.90;;;;;;5014610;28;20467;-74
2024/01/24 06:22:40;;;;;;;36.38;5.40;;;11.80;99.90;;;;;;4996491;28;20049;-73
2024/01/24 06:25:07;;;;;;;38.30;5.40;;;11.80;99.90;;;;;;4996229;28;20119;-74
2024/01/24 06:27:34;;;;;;;40.58;6.95;;;11.80;99.90;;;;;;5014090;28;20052;-75
2024/01/24 06:30:00;;;;;;;35.25;6.35;;;11.80;99.90;;;;;;4995950;28;20129;-74
2024/01/24 06:32:25;;;;;;;37.72;6.25;;;11.80;99.90;;;;;;5013836;28;20113;-75
2024/01/24 06:34:51;;;;;;;38.88;6.10;;;11.70;99.90;;;;;;5014397;28;20077;-74
2024/01/24 06:37:16;;;;;;;35.53;6.00;;;11.70;99.90;;;;;;5014206;28;20057;-76
2024/01/24 06:39:42;;;;;;;39.92;6.15;;;11.70;99.90;;;;;;4980070;28;20053;-77
2024/01/24 06:42:08;;;;;;;44.03;6.78;;;11.70;99.90;;;;;;5014053;28;20470;-78
2024/01/24 06:44:34;;;;;;;40.55;5.85;;;11.60;99.90;;;;;;5013743;28;20104;-79
2024/01/24 06:47:00;;;;;;;54.30;7.22;;;11.60;99.90;;;;;;4996409;28;20049;-78
2024/01/24 06:49:25;;;;;;;38.65;6.78;;;11.60;99.90;;;;;;4996443;28;20030;-75
2024/01/24 06:51:51;;;;;;;41.10;6.85;;;11.50;99.90;;;;;;5015921;28;20478;-76
2024/01/24 06:54:17;;;;;;;48.72;6.93;;;11.50;99.90;;;;;;4964431;28;20100;-77
2024/01/24 06:56:44;;;;;;;41.63;6.78;;;11.40;99.90;;;;;;5013202;28;20116;-77
2024/01/24 06:59:10;;;;;;;44.17;6.30;;;11.40;99.90;;;;;;5013469;28;20024;-77
2024/01/24 07:01:36;;;;;;;42.78;6.95;;;11.40;99.90;;;;;;4979737;28;20128;-81
2024/01/24 07:04:02;;;;;;;41.63;7.43;;;11.30;99.90;;;;;;5000446;28;20061;-81
2024/01/24 07:06:28;;;;;;;41.03;7.60;;;11.30;99.90;;;;;;5014090;28;20078;-76
2024/01/24 07:08:54;;;;;;;43.03;7.50;;;11.30;99.90;;;;;;5013824;28;20065;-76
2024/01/24 07:11:19;;;;;;;48.08;8.18;;;11.20;99.90;;;;;;4995084;28;20041;-74
2024/01/24 07:13:45;;;;;;;44.67;7.60;;;11.20;99.90;;;;;;5013452;28;20392;-76
2024/01/24 07:16:10;;;;;;;42.30;6.95;;;11.20;99.90;;;;;;4995381;28;20041;-73
2024/01/24 07:18:37;;;;;;;47.55;8.07;;;11.20;99.90;;;;;;5013136;28;20053;-75
2024/01/24 07:21:06;;;;;;;41.47;6.90;;;11.10;99.90;;;;;;4996091;28;20033;-76
2024/01/24 07:23:32;;;;;;;46.55;7.32;;;11.10;99.90;;;;;;4994868;28;20076;-75
2024/01/24 07:25:58;;;;;;;41.65;6.70;;;11.10;99.90;;;;;;5013340;28;20038;-73
2024/01/24 07:28:23;;;;;;;42.03;6.80;;;11.10;99.90;;;;;;4979826;28;20084;-75
2024/01/24 07:30:49;;;;;;;43.25;7.20;;;11.00;99.90;;;;;;5013353;28;20049;-75
2024/01/24 07:33:15;;;;;;;43.08;7.25;;;11.10;99.90;;;;;;4995993;28;20434;-74
2024/01/24 07:35:41;;;;;;;42.45;7.07;;;11.00;99.90;;;;;;4995791;28;20033;-74
2024/01/24 07:38:07;;;;;;;46.83;7.47;;;11.00;99.90;;;;;;5013905;28;20033;-74
2024/01/24 07:40:32;;;;;;;48.97;8.15;;;11.00;99.90;;;;;;5013803;28;20471;-79
2024/01/24 07:42:58;;;;;;;51.33;7.55;;;11.00;99.90;;;;;;5014791;28;20030;-74
2024/01/24 07:45:24;;;;;;;40.17;7.05;;;11.00;99.90;;;;;;4984344;28;20026;-74
2024/01/24 07:47:51;;;;;;;43.55;7.07;;;10.90;99.90;;;;;;4999940;28;20093;-73
2024/01/24 07:50:16;;;;;;;45.00;6.72;;;10.90;99.90;;;;;;5000484;28;20034;-74
2024/01/24 07:52:43;;;;;;;39.42;6.65;;;10.90;99.90;;;;;;5013831;28;20046;-73
2024/01/24 07:55:12;;;;;;;45.97;6.88;;;10.90;99.90;;;;;;5013327;28;20125;-73
2024/01/24 07:57:38;;;;;;;46.40;7.72;;;10.90;99.90;;;;;;5013076;28;20058;-73
2024/01/24 08:00:04;;;;;;;47.40;7.13;;;10.90;99.90;;;;;;4979377;28;20064;-73
2024/01/24 08:02:30;;;;;;;46.58;7.78;;;10.90;99.90;;;;;;4995801;28;20041;-75
2024/01/24 08:04:57;;;;;;;44.65;6.80;;;10.90;99.90;;;;;;5013359;28;20121;-73
2024/01/24 08:07:23;;;;;;;50.83;8.20;;;10.80;99.90;;;;;;4995399;28;20030;-73
2024/01/24 08:09:48;;;;;;;39.78;7.10;;;10.80;99.90;;;;;;5012655;28;20096;-73
2024/01/24 08:12:14;;;;;;;47.42;8.32;;;10.80;99.90;;;;;;5012478;28;20034;-73
2024/01/24 08:14:40;;;;;;;41.70;7.22;;;10.80;99.90;;;;;;5012580;28;20030;-73
2024/01/24 08:17:06;;;;;;;43.00;7.55;;;10.80;99.90;;;;;;4995328;28;20030;-73
2024/01/24 08:19:33;;;;;;;51.97;8.57;;;10.80;99.90;;;;;;4991293;28;20054;-73
2024/01/24 08:21:58;;;;;;;43.75;7.43;;;10.80;99.90;;;;;;4992854;28;20030;-72
2024/01/24 08:24:25;;;;;;;38.00;7.15;;;10.80;99.90;;;;;;4993335;28;20030;-74
2024/01/24 08:26:51;;;;;;;42.38;6.32;;;10.80;99.90;;;;;;4975515;28;20080;-78
2024/01/24 08:29:18;;;;;;;39.20;6.65;;;10.90;99.90;;;;;;4975512;28;20031;-72
2024/01/24 08:31:43;;;;;;;38.90;6.55;;;10.90;99.90;;;;;;4992422;28;20039;-72
2024/01/24 08:34:09;;;;;;;52.13;8.40;;;10.90;99.90;;;;;;4993156;28;20031;-77
2024/01/24 08:36:36;;;;;;;40.47;6.60;;;10.90;99.90;;;;;;4993515;28;20359;-73
2024/01/24 08:39:03;;;;;;;45.08;6.47;;;10.90;99.90;;;;;;4996412;28;20035;-73
2024/01/24 08:41:29;;;;;;;42.75;6.45;;;10.90;99.90;;;;;;4995458;28;20066;-73
2024/01/24 08:43:57;;;;;;;44.85;6.57;;;10.90;99.90;;;;;;4996272;28;20031;-74
2024/01/24 08:46:23;;;;;;;41.25;7.72;;;10.90;99.90;;;;;;4996400;28;20039;-74
2024/01/24 08:48:49;;;;;;;38.67;6.32;;;10.90;99.90;;;;;;4996280;28;20467;-75
2024/01/24 08:51:15;;;;;;;46.15;6.75;;;10.90;99.90;;;;;;4994627;28;20042;-76
2024/01/24 08:53:40;;;;;;;40.22;6.72;;;10.90;99.90;;;;;;4962870;28;20455;-74
2024/01/24 08:56:06;;;;;;;50.05;7.53;;;11.00;99.90;;;;;;4995712;28;20452;-75
2024/01/24 08:58:32;;;;;;;39.28;7.53;;;11.00;99.90;;;;;;4995016;28;20117;-74
2024/01/24 09:00:58;;;;;;;39.20;6.45;;;11.00;99.90;;;;;;4996159;28;20431;-74
2024/01/24 09:03:24;;;;;;;45.25;7.32;;;11.00;99.90;;;;;;4995879;28;20463;-75
2024/01/24 09:05:51;;;;;;;36.55;6.60;;;11.00;99.90;;;;;;4994555;28;20037;-73
2024/01/24 09:08:16;;;;;;;38.40;6.55;;;11.00;99.90;;;;;;4994514;28;20033;-74
2024/01/24 09:10:42;;;;;;;47.53;6.40;;;11.00;99.90;;;;;;4995401;28;20379;-72
2024/01/24 09:13:08;;;;;;;34.80;6.72;;;11.00;99.90;;;;;;4995673;28;20038;-73
2024/01/24 09:15:34;;;;;;;42.65;6.78;;;11.00;99.90;;;;;;4995695;28;20031;-73
2024/01/24 09:18:00;;;;;;;39.15;6.53;;;11.10;99.90;;;;;;4995852;28;20037;-72
2024/01/24 09:20:25;;;;;;;47.38;8.23;;;11.10;99.90;;;;;;4994443;28;20066;-73
2024/01/24 09:22:51;;;;;;;31.50;5.68;;;11.20;99.90;;;;;;4995804;28;20061;-74
2024/01/24 09:25:19;;;;;;;48.75;6.90;;;11.10;99.90;;;;;;4995933;28;20031;-73
2024/01/24 09:27:45;;;;;;;32.45;5.95;;;11.20;99.90;;;;;;4994110;28;20034;-74
2024/01/24 09:30:11;;;;;;;37.65;6.40;;;11.20;99.90;;;;;;4995433;28;20108;-74
2024/01/24 09:32:37;;;;;;;33.40;6.60;;;11.30;99.90;;;;;;4995566;28;20543;-74
2024/01/24 09:35:03;;;;;;;44.30;7.05;;;11.30;99.90;;;;;;4994140;28;20058;-74
2024/01/24 09:37:29;;;;;;;33.75;5.88;;;11.30;99.90;;;;;;4995262;28;20056;-74
2024/01/24 09:39:56;;;;;;;40.70;6.32;;;11.30;99.90;;;;;;4995503;28;20030;-73
2024/01/24 09:42:25;;;;;;;47.35;7.95;;;11.30;99.90;;;;;;4994518;28;20105;-74
2024/01/24 09:44:52;;;;;;;32.70;6.57;;;11.40;99.90;;;;;;4995387;28;20072;-73
2024/01/24 09:47:22;;;;;;;40.90;6.05;;;11.30;99.90;;;;;;4995028;28;20463;-73
2024/01/24 09:49:48;;;;;;;40.75;6.22;;;11.40;99.90;;;;;;4994850;28;20077;-74
2024/01/24 09:52:17;;;;;;;45.88;6.70;;;11.40;99.90;;;;;;4993620;28;20034;-73
2024/01/24 09:54:43;;;;;;;39.42;7.15;;;11.40;99.90;;;;;;4994970;28;20077;-74
2024/01/24 09:57:10;;;;;;;41.95;6.85;;;11.50;99.90;;;;;;4993484;28;20447;-74
2024/01/24 09:59:36;;;;;;;37.72;6.72;;;11.50;99.90;;;;;;4994702;28;20034;-73
2024/01/24 10:02:03;;;;;;;47.92;6.45;;;11.50;99.90;;;;;;4994896;28;20112;-73
2024/01/24 10:04:36;;;;;;;44.17;5.97;;;11.50;99.90;;;;;;4994695;28;20065;-73
2024/01/24 10:07:04;;;;;;;30.27;5.32;;;11.50;99.90;;;;;;4978536;28;20352;-74
2024/01/24 10:09:29;;;;;;;36.58;5.80;;;11.60;99.90;;;;;;4994420;28;20116;-74
2024/01/24 10:11:55;;;;;;;35.63;6.57;;;11.60;99.90;;;;;;4992975;28;20522;-74
2024/01/24 10:14:22;;;;;;;43.42;6.55;;;11.60;99.90;;;;;;4994946;28;20026;-74
2024/01/24 10:16:50;;;;;;;32.72;6.43;;;11.70;99.90;;;;;;4994689;28;20089;-74
2024/01/24 10:19:17;;;;;;;36.95;6.78;;;11.70;99.90;;;;;;4994814;28;20058;-74
2024/01/24 10:21:43;;;;;;;40.13;5.78;;;11.80;99.80;;;;;;4997642;28;20034;-73
2024/01/24 10:24:09;;;;;;;39.47;5.50;;;11.80;99.80;;;;;;4996381;28;20049;-74
2024/01/24 10:26:35;;;;;;;35.75;6.35;;;11.80;99.70;;;;;;4995652;28;20117;-76
2024/01/24 10:29:01;;;;;;;33.63;5.30;;;11.90;99.50;;;;;;4993439;28;20069;-74
2024/01/24 10:31:26;;;;;;;33.55;5.85;;;11.80;99.70;;;;;;4977041;28;20050;-74
2024/01/24 10:33:58;;;;;;;41.05;6.25;;;11.90;99.60;;;;;;4994820;28;20060;-73
2024/01/24 10:36:26;;;;;;;32.50;5.50;;;12.00;99.60;;;;;;4994507;28;20088;-77
2024/01/24 10:39:00;;;;;;;43.95;6.43;;;11.90;99.30;;;;;;4994060;28;20026;-75
2024/01/24 10:41:31;;;;;;;40.20;6.18;;;11.90;99.20;;;;;;4994692;28;20034;-74
2024/01/24 10:44:01;;;;;;;34.50;5.68;;;12.00;99.50;;;;;;4994363;28;20030;-73
2024/01/24 10:46:26;;;;;;;38.67;7.43;;;12.00;99.60;;;;;;4992738;28;20097;-75
2024/01/24 10:48:54;;;;;;;50.13;7.78;;;11.90;99.30;;;;;;4994282;28;20030;-79
2024/01/24 10:51:19;;;;;;;34.28;6.00;;;11.90;99.30;;;;;;4993156;28;20372;-77
2024/01/24 10:53:47;;;;;;;32.80;6.55;;;11.90;99.40;;;;;;4993669;28;20038;-79
2024/01/24 10:56:15;;;;;;;34.60;7.45;;;11.90;99.40;;;;;;4992677;28;20040;-78
2024/01/24 10:58:42;;;;;;;45.60;6.97;;;11.90;99.40;;;;;;4992029;28;20023;-80
2024/01/24 11:01:08;;;;;;;41.63;7.38;;;11.90;99.40;;;;;;4992671;28;20041;-74
2024/01/24 11:03:34;;;;;;;37.13;6.15;;;11.90;99.30;;;;;;4993803;28;20038;-74
2024/01/24 11:06:05;;;;;;;36.33;6.53;;;11.90;99.60;;;;;;4994376;28;20046;-74
2024/01/24 11:08:39;;;;;;;37.50;6.25;;;11.80;99.50;;;;;;4994173;28;20060;-76
2024/01/24 11:11:10;;;;;;;38.67;5.68;;;11.80;99.40;;;;;;4992950;28;20041;-77
2024/01/24 11:13:37;;;;;;;39.05;6.68;;;11.80;99.20;;;;;;4976688;28;20026;-76
2024/01/24 11:16:26;;;;;;;31.23;5.57;;;11.80;99.30;;;;;;4993177;28;20057;-75
2024/01/24 11:18:52;;;;;;;39.78;6.32;;;11.80;99.20;;;;;;4991288;28;20050;-75
2024/01/24 11:21:21;;;;;;;43.92;6.43;;;11.90;99.30;;;;;;4995744;28;20118;-75
2024/01/24 11:23:49;;;;;;;40.28;6.90;;;11.90;99.20;;;;;;4995546;28;20065;-76
2024/01/24 11:26:17;;;;;;;34.08;6.07;;;11.90;99.10;;;;;;5013367;28;20030;-75
2024/01/24 11:28:43;;;;;;;41.85;6.53;;;11.90;99.40;;;;;;5013032;28;20105;-75
2024/01/24 11:31:10;;;;;;;41.50;7.75;;;11.90;99.00;;;;;;5012910;28;20065;-75
2024/01/24 11:33:36;;;;;;;31.08;5.47;;;12.00;99.10;;;;;;5013307;28;20042;-75
2024/01/24 11:36:05;;;;;;;34.42;6.47;;;12.00;99.10;;;;;;5013156;28;20080;-75
2024/01/24 11:38:36;;;;;;;42.35;6.85;;;12.00;99.10;;;;;;5013155;28;20072;-75
2024/01/24 11:41:24;;;;;;;31.52;5.47;;;12.00;98.90;;;;;;4995502;28;20107;-75
2024/01/24 11:43:49;;;;;;;41.45;6.95;;;12.00;99.20;;;;;;4995042;28;20088;-76
2024/01/24 11:46:15;;;;;;;38.55;6.53;;;12.10;99.20;;;;;;5012834;28;20030;-75
2024/01/24 11:48:40;;;;;;;36.50;5.93;;;12.00;98.90;;;;;;5012514;28;20478;-75
2024/01/24 11:51:11;;;;;;;34.05;6.80;;;12.00;99.00;;;;;;4995222;28;20037;-75
2024/01/24 11:53:37;;;;;;;36.53;5.40;;;12.00;99.00;;;;;;5013214;28;20029;-76
2024/01/24 11:56:06;;;;;;;35.78;6.07;;;12.00;98.90;;;;;;5013477;28;20459;-82
2024/01/24 11:58:32;;;;;;;34.25;6.75;;;12.00;98.70;;;;;;5014483;28;20025;-83
2024/01/24 12:01:07;;;;;;;30.90;5.65;;;12.10;98.80;;;;;;5017699;28;20125;-82
2024/01/24 12:03:33;;;;;;;31.70;5.95;;;12.10;98.90;;;;;;4998391;28;20026;-82
2024/01/24 12:06:00;;;;;;;40.38;7.75;;;12.10;98.90;;;;;;5013338;28;20026;-78
2024/01/24 12:08:26;;;;;;;33.03;5.60;;;12.10;98.90;;;;;;4995820;28;20045;-79
2024/01/24 12:10:52;;;;;;;37.95;5.50;;;12.10;98.90;;;;;;5015835;28;20037;-80
2024/01/24 12:13:20;;;;;;;33.38;6.35;;;12.10;98.90;;;;;;5017652;28;20033;-79
2024/01/24 12:15:46;;;;;;;33.47;5.75;;;12.20;98.90;;;;;;5017552;28;20065;-81
2024/01/24 12:18:15;;;;;;;28.98;6.63;;;12.20;98.40;;;;;;5016912;28;20054;-80
2024/01/24 12:20:46;;;;;;;29.15;6.15;;;12.10;98.40;;;;;;5016768;28;20077;-79
2024/01/24 12:23:11;;;;;;;39.70;6.03;;;12.10;98.10;;;;;;5016640;28;20405;-80
2024/01/24 12:25:37;;;;;;;34.58;6.13;;;12.10;98.30;;;;;;5016397;28;20054;-78
2024/01/24 12:28:05;;;;;;;28.40;5.00;;;12.10;98.10;;;;;;4999415;28;20029;-78
2024/01/24 12:30:34;;;;;;;34.42;4.82;;;12.00;98.10;;;;;;5017119;28;20030;-78
2024/01/24 12:33:01;;;;;;;38.75;6.30;;;12.00;98.20;;;;;;5017368;28;20037;-78
2024/01/24 12:35:28;;;;;;;30.15;5.53;;;12.00;97.90;;;;;;5016846;28;20065;-78